Allenville, Illinois
Current Conditions -  °F | °C
As of 10:02 AM on Thursday 18 Dec 2014 (Local Time) from KMTO Reporting Station
Overcast Overcast  
Wind Chill: 26°   Ceiling: 1600
Heat Index: 26°   Visibility: 9mi
Dew Point: 19°   Wind: 3mph
Humidity: 75%   Direction: 50°NE
Pressure: 30.3"   Gusts: NA
Location:  39.5872°N, 88.5835°W
Report Text: KMTO 181602Z AUTO 05003KT 9SM BKN016 BKN060 OVC075 M03/M07 A3030 RMK AO2 T10331072
Loading
Personal Weather Stations






























Interactive Weather Map New forecast layout! Learn more

10-Day Weather Forecast

Advertisements
Track Severe Weather on mobile